createdAt,value
2023-06-15T00:02:23.376Z,98.00
2023-06-15T00:07:26.974Z,98.20
2023-06-15T00:12:29.276Z,98.20
2023-06-15T00:17:32.742Z,98.60
2023-06-15T00:22:37.037Z,98.70
2023-06-15T00:27:40.659Z,99.10
2023-06-15T00:32:42.822Z,99.80
2023-06-15T00:37:46.507Z,99.90
2023-06-15T00:42:49.739Z,99.90
2023-06-15T00:47:55.124Z,99.00
2023-06-15T00:53:04.974Z,99.90
2023-06-15T00:58:10.792Z,99.90
2023-06-15T01:03:14.516Z,99.90
2023-06-15T01:08:19.387Z,99.90
2023-06-15T01:13:26.130Z,99.90
2023-06-15T01:18:32.243Z,99.90
2023-06-15T01:23:43.234Z,99.90
2023-06-15T01:28:53.659Z,99.90
2023-06-15T01:33:56.795Z,99.90
2023-06-15T01:38:59.775Z,99.90
2023-06-15T01:44:08.481Z,99.90
2023-06-15T01:49:12.542Z,99.90
2023-06-15T01:54:17.767Z,99.90
2023-06-15T01:59:22.502Z,99.90
2023-06-15T02:04:24.868Z,99.90
2023-06-15T02:09:26.568Z,99.90
2023-06-15T02:14:30.222Z,99.90
2023-06-15T02:19:32.504Z,99.90
2023-06-15T02:24:34.800Z,99.90
2023-06-15T02:29:38.559Z,99.90
2023-06-15T02:34:40.910Z,99.90
2023-06-15T02:39:43.920Z,99.90
2023-06-15T02:44:47.654Z,99.90
2023-06-15T02:49:49.501Z,99.90
2023-06-15T02:54:51.571Z,99.90
2023-06-15T02:59:54.900Z,99.90
2023-06-15T03:04:58.306Z,99.90
2023-06-15T03:10:00.356Z,99.90
2023-06-15T03:15:03.975Z,99.90
2023-06-15T03:20:09.712Z,99.90
2023-06-15T03:25:12.893Z,99.90
2023-06-15T03:30:17.416Z,99.90
2023-06-15T03:35:19.783Z,99.90
2023-06-15T03:40:22.219Z,99.90
2023-06-15T03:45:26.098Z,99.90
2023-06-15T03:50:27.919Z,99.90
2023-06-15T03:55:29.814Z,99.90
2023-06-15T04:00:33.347Z,99.90
2023-06-15T04:05:35.386Z,99.90
2023-06-15T04:10:38.993Z,99.90
2023-06-15T04:15:42.542Z,99.90
2023-06-15T04:20:45.018Z,99.90
2023-06-15T04:25:46.927Z,99.90
2023-06-15T04:30:56.306Z,99.90
2023-06-15T04:35:58.515Z,99.90
2023-06-15T04:41:01.958Z,99.90
2023-06-15T04:46:05.464Z,99.90
2023-06-15T04:51:07.472Z,99.90
2023-06-15T04:56:09.310Z,99.90
2023-06-15T05:01:12.860Z,99.90
2023-06-15T05:06:15.343Z,99.90
2023-06-15T05:11:17.579Z,99.90
2023-06-15T05:16:21.039Z,99.90
2023-06-15T05:21:23.561Z,99.90
2023-06-15T05:26:30.140Z,99.90
2023-06-15T05:31:34.425Z,99.90
2023-06-15T05:36:55.082Z,99.90
2023-06-15T05:41:58.821Z,99.90
2023-06-15T05:47:02.614Z,99.90
2023-06-15T05:52:04.870Z,99.90
2023-06-15T05:57:07.435Z,99.90
2023-06-15T06:02:11.442Z,99.90
2023-06-15T06:07:13.453Z,99.90
2023-06-15T06:12:15.771Z,99.90
2023-06-15T06:17:42.910Z,99.90
2023-06-15T06:22:42.473Z,99.90
2023-06-15T06:27:44.582Z,99.90
2023-06-15T06:32:48.963Z,99.90
2023-06-15T06:37:51.295Z,99.90
2023-06-15T06:42:52.897Z,99.90
2023-06-15T06:47:56.403Z,99.90
2023-06-15T06:52:58.417Z,99.90
2023-06-15T06:58:02.261Z,99.50
2023-06-15T07:03:08.117Z,98.40
2023-06-15T07:08:11.697Z,96.90
2023-06-15T07:13:13.656Z,97.60
2023-06-15T07:18:17.601Z,96.30
2023-06-15T07:23:19.658Z,96.40
2023-06-15T07:28:22.268Z,95.80
2023-06-15T07:33:25.998Z,94.80
2023-06-15T07:38:28.004Z,94.70
2023-06-15T07:43:30.287Z,94.50
2023-06-15T07:48:34.288Z,94.40
2023-06-15T07:53:36.523Z,93.50
2023-06-15T07:58:40.087Z,93.10
2023-06-15T08:03:43.714Z,92.80
2023-06-15T08:08:46.598Z,92.90
2023-06-15T08:13:48.629Z,92.90
2023-06-15T08:18:52.336Z,93.20
2023-06-15T08:23:54.357Z,92.00
2023-06-15T08:29:03.494Z,90.60
2023-06-15T08:34:16.953Z,92.30
2023-06-15T08:39:19.233Z,92.50
2023-06-15T08:44:22.061Z,93.60
2023-06-15T08:49:26.726Z,91.40
2023-06-15T08:54:31.753Z,91.80
2023-06-15T08:59:33.866Z,92.20
2023-06-15T09:04:37.815Z,91.00
2023-06-15T09:09:40.146Z,92.70
2023-06-15T09:14:42.066Z,91.80
2023-06-15T09:19:47.572Z,90.00
2023-06-15T09:24:49.713Z,90.30
2023-06-15T09:30:04.564Z,91.70
2023-06-15T09:35:09.832Z,90.30
2023-06-15T09:40:14.312Z,90.00
2023-06-15T09:45:16.522Z,90.10
2023-06-15T09:50:20.470Z,89.90
2023-06-15T09:55:24.773Z,90.40
2023-06-15T10:00:27.166Z,89.20
2023-06-15T10:05:34.469Z,87.40
2023-06-15T10:10:39.203Z,88.70
2023-06-15T10:15:46.450Z,87.20
2023-06-15T10:20:50.854Z,83.40
2023-06-15T10:25:56.844Z,86.90
2023-06-15T10:31:07.031Z,84.20
2023-06-15T10:36:20.427Z,83.90
2023-06-15T10:41:22.638Z,81.50
2023-06-15T10:46:29.112Z,79.20
2023-06-15T10:51:36.674Z,76.50
2023-06-15T10:56:50.065Z,73.50
2023-06-15T11:01:52.346Z,76.10
2023-06-15T11:07:03.359Z,71.40
2023-06-15T11:12:36.341Z,74.70
2023-06-15T11:17:57.008Z,70.10
2023-06-15T11:23:04.628Z,65.50
2023-06-15T11:28:10.383Z,68.20
2023-06-15T11:33:15.908Z,71.20
2023-06-15T11:38:19.356Z,72.50
2023-06-15T11:43:21.815Z,64.20
2023-06-15T11:48:25.444Z,71.10
2023-06-15T11:53:28.662Z,71.10
2023-06-15T11:58:30.697Z,65.70
2023-06-15T12:03:43.861Z,61.20
2023-06-15T12:08:56.471Z,64.60
2023-06-15T12:14:02.806Z,68.70
2023-06-15T12:19:05.823Z,63.60
2023-06-15T12:24:16.008Z,64.50
2023-06-15T12:29:18.869Z,61.90
2023-06-15T12:34:25.497Z,61.80
2023-06-15T12:39:31.417Z,60.60
2023-06-15T12:44:36.039Z,60.90
2023-06-15T12:49:38.338Z,61.80
2023-06-15T12:54:41.642Z,58.50
2023-06-15T12:59:43.596Z,59.20
2023-06-15T13:04:46.397Z,57.80
2023-06-15T13:09:49.680Z,61.20
2023-06-15T13:14:51.797Z,57.70
2023-06-15T13:19:53.966Z,55.00
2023-06-15T13:24:57.516Z,55.00
2023-06-15T13:29:59.933Z,55.80
2023-06-15T13:35:02.251Z,55.90
2023-06-15T13:40:07.912Z,58.40
2023-06-15T13:45:12.393Z,57.40
2023-06-15T13:50:17.692Z,52.80
2023-06-15T13:55:21.954Z,54.40
2023-06-15T14:00:25.032Z,55.60
2023-06-15T14:05:27.508Z,50.80
2023-06-15T14:10:30.766Z,52.60
2023-06-15T14:15:33.417Z,56.20
2023-06-15T14:20:35.819Z,52.00
2023-06-15T14:25:40.535Z,53.50
2023-06-15T14:30:42.855Z,50.80
2023-06-15T14:35:44.666Z,53.90
2023-06-15T14:40:47.985Z,53.80
2023-06-15T14:45:50.450Z,52.40
2023-06-15T14:50:52.647Z,53.40
2023-06-15T14:55:56.790Z,52.80
2023-06-15T15:00:59.092Z,50.70
2023-06-15T15:06:01.258Z,54.00
2023-06-15T15:11:05.146Z,54.00
2023-06-15T15:16:08.468Z,50.90
2023-06-15T15:21:10.692Z,51.60
2023-06-15T15:26:14.373Z,53.80
2023-06-15T15:31:17.768Z,51.30
2023-06-15T15:36:21.044Z,54.10
2023-06-15T15:41:25.642Z,54.00
2023-06-15T15:46:28.230Z,54.70
2023-06-15T15:51:30.181Z,54.40
2023-06-15T15:56:33.885Z,54.60
2023-06-15T16:01:35.977Z,53.20
2023-06-15T16:06:38.095Z,53.70
2023-06-15T16:11:41.617Z,53.90
2023-06-15T16:16:43.877Z,56.60
2023-06-15T16:21:46.079Z,57.10
2023-06-15T16:26:49.829Z,57.90
2023-06-15T16:31:52.017Z,57.50
2023-06-15T16:36:54.233Z,56.30
2023-06-15T16:41:57.579Z,57.30
2023-06-15T16:46:59.529Z,56.60
2023-06-15T16:52:01.241Z,59.10
2023-06-15T16:57:05.255Z,61.40
2023-06-15T17:02:07.637Z,61.00
2023-06-15T17:07:10.866Z,61.70
2023-06-15T17:12:15.433Z,60.20
2023-06-15T17:17:17.920Z,62.00
2023-06-15T17:22:20.072Z,62.20
2023-06-15T17:27:23.753Z,62.80
2023-06-15T17:32:26.801Z,65.10
2023-06-15T17:37:28.967Z,65.30
2023-06-15T17:42:33.073Z,67.00
2023-06-15T17:47:35.527Z,65.40
2023-06-15T17:52:38.373Z,64.90
2023-06-15T17:57:43.178Z,67.80
2023-06-15T18:02:45.862Z,70.20
2023-06-15T18:07:48.641Z,72.40
2023-06-15T18:18:39.580Z,72.70
2023-06-15T18:24:08.655Z,75.20
2023-06-15T18:29:13.212Z,79.70
2023-06-15T18:34:17.021Z,81.20
2023-06-15T18:39:22.544Z,84.10
2023-06-15T18:44:29.946Z,82.00
2023-06-15T18:49:32.978Z,82.60
2023-06-15T18:54:36.293Z,84.30
2023-06-15T18:59:40.634Z,86.30
2023-06-15T19:04:44.192Z,87.20
2023-06-15T19:09:48.602Z,91.40
2023-06-15T19:14:52.765Z,92.50
2023-06-15T19:19:55.806Z,90.60
2023-06-15T19:24:59.432Z,91.00
2023-06-15T19:30:03.925Z,89.40
2023-06-15T19:35:07.836Z,91.90
2023-06-15T19:40:12.124Z,92.20
2023-06-15T19:45:16.770Z,94.60
2023-06-15T19:50:20.231Z,94.60
2023-06-15T19:55:23.502Z,96.00
2023-06-15T20:00:29.994Z,95.40
2023-06-15T20:05:33.378Z,94.90
2023-06-15T20:10:37.103Z,93.80
2023-06-15T20:15:41.252Z,94.70
2023-06-15T20:20:46.257Z,95.70
2023-06-15T20:25:50.190Z,96.10
2023-06-15T20:30:55.874Z,94.50
2023-06-15T20:35:59.946Z,95.90
2023-06-15T20:41:04.118Z,96.20
2023-06-15T20:46:08.098Z,96.40
2023-06-15T20:51:11.118Z,96.70
2023-06-15T20:56:13.126Z,95.70
2023-06-15T21:01:16.622Z,95.80
2023-06-15T21:06:18.908Z,96.20
2023-06-15T21:11:21.385Z,95.90
2023-06-15T21:16:25.022Z,96.40
2023-06-15T21:21:28.798Z,94.10
2023-06-15T21:26:32.275Z,96.00
2023-06-15T21:31:36.971Z,95.80
2023-06-15T21:36:39.141Z,96.30
2023-06-15T21:41:41.526Z,95.70
2023-06-15T21:46:44.747Z,95.60
2023-06-15T21:51:47.032Z,95.80
2023-06-15T21:56:49.240Z,96.70
2023-06-15T22:01:52.639Z,96.60
2023-06-15T22:06:54.994Z,96.30
2023-06-15T22:11:57.087Z,96.40
2023-06-15T22:17:01.765Z,96.20
2023-06-15T22:22:04.283Z,96.40
2023-06-15T22:27:07.856Z,95.80
2023-06-15T22:32:11.648Z,96.40
2023-06-15T22:37:13.632Z,94.60
2023-06-15T22:42:15.628Z,93.80
2023-06-15T22:47:19.526Z,94.30
2023-06-15T22:52:22.143Z,95.60
2023-06-15T22:57:24.289Z,96.00
2023-06-15T23:02:28.039Z,96.20
2023-06-15T23:07:30.992Z,94.70
2023-06-15T23:12:33.926Z,94.50
2023-06-15T23:17:38.151Z,96.50
2023-06-15T23:22:42.307Z,97.20
2023-06-15T23:27:48.388Z,95.90
2023-06-15T23:32:51.831Z,95.60
2023-06-15T23:37:53.902Z,95.50
2023-06-15T23:42:55.879Z,97.00
2023-06-15T23:47:59.424Z,96.80
2023-06-15T23:53:01.424Z,97.20
2023-06-15T23:58:04.818Z,98.00
